sensor_id;sensor_type;location;lat;lon;timestamp;P1;durP1;ratioP1;P2;durP2;ratioP2
12480;SDS011;6305;48.398;11.762;2024-01-15T00:00:14;74.70;;;31.73;;
12480;SDS011;6305;48.398;11.762;2024-01-15T00:02:41;68.80;;;30.77;;
12480;SDS011;6305;48.398;11.762;2024-01-15T00:05:08;65.30;;;30.27;;
12480;SDS011;6305;48.398;11.762;2024-01-15T00:07:37;66.57;;;28.57;;
12480;SDS011;6305;48.398;11.762;2024-01-15T00:10:04;63.10;;;27.47;;
12480;SDS011;6305;48.398;11.762;2024-01-15T00:12:32;60.77;;;27.03;;
12480;SDS011;6305;48.398;11.762;2024-01-15T00:14:58;66.20;;;26.97;;
12480;SDS011;6305;48.398;11.762;2024-01-15T00:17:25;53.23;;;22.73;;
12480;SDS011;6305;48.398;11.762;2024-01-15T00:19:52;64.70;;;26.77;;
12480;SDS011;6305;48.398;11.762;2024-01-15T00:22:19;61.37;;;26.83;;
12480;SDS011;6305;48.398;11.762;2024-01-15T00:24:47;59.30;;;25.23;;
12480;SDS011;6305;48.398;11.762;2024-01-15T00:27:14;59.27;;;24.30;;
12480;SDS011;6305;48.398;11.762;2024-01-15T00:29:41;63.20;;;24.13;;
12480;SDS011;6305;48.398;11.762;2024-01-15T00:32:08;59.03;;;25.00;;
12480;SDS011;6305;48.398;11.762;2024-01-15T00:34:35;51.23;;;22.87;;
12480;SDS011;6305;48.398;11.762;2024-01-15T00:37:02;58.00;;;21.70;;
12480;SDS011;6305;48.398;11.762;2024-01-15T00:39:32;55.33;;;22.80;;
12480;SDS011;6305;48.398;11.762;2024-01-15T00:42:00;50.17;;;21.13;;
12480;SDS011;6305;48.398;11.762;2024-01-15T00:44:28;44.37;;;19.67;;
12480;SDS011;6305;48.398;11.762;2024-01-15T00:46:55;43.47;;;19.27;;
12480;SDS011;6305;48.398;11.762;2024-01-15T00:49:22;45.10;;;18.60;;
12480;SDS011;6305;48.398;11.762;2024-01-15T00:51:49;39.57;;;17.37;;
12480;SDS011;6305;48.398;11.762;2024-01-15T00:54:16;39.43;;;17.10;;
12480;SDS011;6305;48.398;11.762;2024-01-15T00:56:43;40.43;;;16.60;;
12480;SDS011;6305;48.398;11.762;2024-01-15T00:59:11;37.47;;;16.37;;
12480;SDS011;6305;48.398;11.762;2024-01-15T01:01:40;33.27;;;15.03;;
12480;SDS011;6305;48.398;11.762;2024-01-15T01:04:08;33.50;;;15.03;;
12480;SDS011;6305;48.398;11.762;2024-01-15T01:06:35;34.30;;;14.07;;
12480;SDS011;6305;48.398;11.762;2024-01-15T01:09:02;33.03;;;14.70;;
12480;SDS011;6305;48.398;11.762;2024-01-15T01:11:29;29.20;;;13.57;;
12480;SDS011;6305;48.398;11.762;2024-01-15T01:13:56;30.00;;;13.43;;
12480;SDS011;6305;48.398;11.762;2024-01-15T01:16:24;28.80;;;13.50;;
12480;SDS011;6305;48.398;11.762;2024-01-15T01:18:51;27.20;;;12.67;;
12480;SDS011;6305;48.398;11.762;2024-01-15T01:21:19;24.67;;;13.40;;
12480;SDS011;6305;48.398;11.762;2024-01-15T01:23:46;27.60;;;13.47;;
12480;SDS011;6305;48.398;11.762;2024-01-15T01:26:15;26.73;;;12.80;;
12480;SDS011;6305;48.398;11.762;2024-01-15T01:28:42;26.90;;;12.97;;
12480;SDS011;6305;48.398;11.762;2024-01-15T01:31:09;29.13;;;12.97;;
12480;SDS011;6305;48.398;11.762;2024-01-15T01:33:38;28.23;;;13.77;;
12480;SDS011;6305;48.398;11.762;2024-01-15T01:36:07;27.57;;;13.67;;
12480;SDS011;6305;48.398;11.762;2024-01-15T01:38:34;29.67;;;13.70;;
12480;SDS011;6305;48.398;11.762;2024-01-15T01:41:01;31.37;;;13.70;;
12480;SDS011;6305;48.398;11.762;2024-01-15T01:43:28;23.73;;;12.63;;
12480;SDS011;6305;48.398;11.762;2024-01-15T01:45:55;29.40;;;13.23;;
12480;SDS011;6305;48.398;11.762;2024-01-15T01:48:24;28.47;;;12.83;;
12480;SDS011;6305;48.398;11.762;2024-01-15T01:50:53;25.10;;;12.67;;
12480;SDS011;6305;48.398;11.762;2024-01-15T01:53:21;26.20;;;13.47;;
12480;SDS011;6305;48.398;11.762;2024-01-15T01:55:48;31.00;;;13.40;;
12480;SDS011;6305;48.398;11.762;2024-01-15T01:58:16;27.77;;;13.37;;
12480;SDS011;6305;48.398;11.762;2024-01-15T02:00:45;30.33;;;13.27;;
12480;SDS011;6305;48.398;11.762;2024-01-15T02:03:12;25.00;;;12.60;;
12480;SDS011;6305;48.398;11.762;2024-01-15T02:05:40;27.63;;;12.93;;
12480;SDS011;6305;48.398;11.762;2024-01-15T02:08:11;28.77;;;13.27;;
12480;SDS011;6305;48.398;11.762;2024-01-15T02:10:38;26.97;;;12.93;;
12480;SDS011;6305;48.398;11.762;2024-01-15T02:13:05;28.73;;;13.27;;
12480;SDS011;6305;48.398;11.762;2024-01-15T02:15:32;26.07;;;12.23;;
12480;SDS011;6305;48.398;11.762;2024-01-15T02:18:00;27.33;;;12.93;;
12480;SDS011;6305;48.398;11.762;2024-01-15T02:20:28;26.77;;;12.30;;
12480;SDS011;6305;48.398;11.762;2024-01-15T02:23:03;25.43;;;12.20;;
12480;SDS011;6305;48.398;11.762;2024-01-15T02:25:35;23.20;;;12.20;;
12480;SDS011;6305;48.398;11.762;2024-01-15T02:28:02;25.60;;;12.93;;
12480;SDS011;6305;48.398;11.762;2024-01-15T02:30:30;24.93;;;12.60;;
12480;SDS011;6305;48.398;11.762;2024-01-15T02:32:58;25.50;;;12.30;;
12480;SDS011;6305;48.398;11.762;2024-01-15T02:35:25;27.60;;;12.50;;
12480;SDS011;6305;48.398;11.762;2024-01-15T02:37:52;25.67;;;11.90;;
12480;SDS011;6305;48.398;11.762;2024-01-15T02:40:20;24.17;;;12.47;;
12480;SDS011;6305;48.398;11.762;2024-01-15T02:42:47;24.20;;;12.60;;
12480;SDS011;6305;48.398;11.762;2024-01-15T02:45:14;23.80;;;12.60;;
12480;SDS011;6305;48.398;11.762;2024-01-15T02:47:41;26.50;;;13.90;;
12480;SDS011;6305;48.398;11.762;2024-01-15T02:50:08;25.63;;;12.50;;
12480;SDS011;6305;48.398;11.762;2024-01-15T02:52:35;24.17;;;12.77;;
12480;SDS011;6305;48.398;11.762;2024-01-15T02:55:02;27.73;;;13.17;;
12480;SDS011;6305;48.398;11.762;2024-01-15T02:57:31;25.53;;;12.10;;
12480;SDS011;6305;48.398;11.762;2024-01-15T02:59:58;25.57;;;12.50;;
12480;SDS011;6305;48.398;11.762;2024-01-15T03:02:25;25.73;;;13.33;;
12480;SDS011;6305;48.398;11.762;2024-01-15T03:04:51;25.83;;;13.00;;
12480;SDS011;6305;48.398;11.762;2024-01-15T03:07:18;23.97;;;12.63;;
12480;SDS011;6305;48.398;11.762;2024-01-15T03:09:45;25.07;;;12.77;;
12480;SDS011;6305;48.398;11.762;2024-01-15T03:12:12;23.93;;;11.63;;
12480;SDS011;6305;48.398;11.762;2024-01-15T03:14:40;23.60;;;11.40;;
12480;SDS011;6305;48.398;11.762;2024-01-15T03:17:07;22.93;;;12.60;;
12480;SDS011;6305;48.398;11.762;2024-01-15T03:19:36;28.67;;;12.70;;
12480;SDS011;6305;48.398;11.762;2024-01-15T03:22:03;22.27;;;11.43;;
12480;SDS011;6305;48.398;11.762;2024-01-15T03:24:31;23.27;;;12.60;;
12480;SDS011;6305;48.398;11.762;2024-01-15T03:26:58;23.03;;;12.40;;
12480;SDS011;6305;48.398;11.762;2024-01-15T03:29:25;22.20;;;11.77;;
12480;SDS011;6305;48.398;11.762;2024-01-15T03:31:54;21.17;;;11.07;;
12480;SDS011;6305;48.398;11.762;2024-01-15T03:34:20;23.23;;;11.57;;
12480;SDS011;6305;48.398;11.762;2024-01-15T03:36:47;22.13;;;11.23;;
12480;SDS011;6305;48.398;11.762;2024-01-15T03:39:14;23.33;;;11.17;;
12480;SDS011;6305;48.398;11.762;2024-01-15T03:41:41;22.60;;;10.57;;
12480;SDS011;6305;48.398;11.762;2024-01-15T03:44:08;21.57;;;11.37;;
12480;SDS011;6305;48.398;11.762;2024-01-15T03:46:35;24.20;;;11.83;;
12480;SDS011;6305;48.398;11.762;2024-01-15T03:49:03;21.30;;;11.23;;
12480;SDS011;6305;48.398;11.762;2024-01-15T03:51:30;19.77;;;11.10;;
12480;SDS011;6305;48.398;11.762;2024-01-15T03:53:57;21.23;;;11.27;;
12480;SDS011;6305;48.398;11.762;2024-01-15T03:56:24;22.30;;;11.53;;
12480;SDS011;6305;48.398;11.762;2024-01-15T03:58:51;23.60;;;11.27;;
12480;SDS011;6305;48.398;11.762;2024-01-15T04:01:18;23.97;;;11.27;;
12480;SDS011;6305;48.398;11.762;2024-01-15T04:03:45;23.53;;;11.17;;
12480;SDS011;6305;48.398;11.762;2024-01-15T04:06:14;22.03;;;10.93;;
12480;SDS011;6305;48.398;11.762;2024-01-15T04:08:41;22.70;;;11.57;;
12480;SDS011;6305;48.398;11.762;2024-01-15T04:11:07;22.50;;;11.27;;
12480;SDS011;6305;48.398;11.762;2024-01-15T04:13:34;21.80;;;11.30;;
12480;SDS011;6305;48.398;11.762;2024-01-15T04:16:01;24.17;;;11.90;;
12480;SDS011;6305;48.398;11.762;2024-01-15T04:18:28;24.77;;;12.33;;
12480;SDS011;6305;48.398;11.762;2024-01-15T04:20:55;21.03;;;11.03;;
12480;SDS011;6305;48.398;11.762;2024-01-15T04:23:23;19.90;;;11.17;;
12480;SDS011;6305;48.398;11.762;2024-01-15T04:25:51;24.27;;;11.93;;
12480;SDS011;6305;48.398;11.762;2024-01-15T04:28:18;23.10;;;11.13;;
12480;SDS011;6305;48.398;11.762;2024-01-15T04:30:45;19.97;;;11.27;;
12480;SDS011;6305;48.398;11.762;2024-01-15T04:33:12;23.80;;;11.50;;
12480;SDS011;6305;48.398;11.762;2024-01-15T04:35:39;20.53;;;10.50;;
12480;SDS011;6305;48.398;11.762;2024-01-15T04:38:06;21.63;;;11.13;;
12480;SDS011;6305;48.398;11.762;2024-01-15T04:40:34;21.77;;;11.27;;
12480;SDS011;6305;48.398;11.762;2024-01-15T04:43:01;19.47;;;10.30;;
12480;SDS011;6305;48.398;11.762;2024-01-15T04:45:28;21.87;;;10.80;;
12480;SDS011;6305;48.398;11.762;2024-01-15T04:47:55;22.80;;;10.93;;
12480;SDS011;6305;48.398;11.762;2024-01-15T04:50:23;20.90;;;10.60;;
12480;SDS011;6305;48.398;11.762;2024-01-15T04:52:50;19.33;;;10.13;;
12480;SDS011;6305;48.398;11.762;2024-01-15T04:55:17;19.47;;;10.33;;
12480;SDS011;6305;48.398;11.762;2024-01-15T04:57:46;21.57;;;10.77;;
12480;SDS011;6305;48.398;11.762;2024-01-15T05:00:13;20.53;;;11.00;;
12480;SDS011;6305;48.398;11.762;2024-01-15T05:02:40;20.47;;;10.60;;
12480;SDS011;6305;48.398;11.762;2024-01-15T05:05:07;21.67;;;10.80;;
12480;SDS011;6305;48.398;11.762;2024-01-15T05:07:34;20.73;;;10.60;;
12480;SDS011;6305;48.398;11.762;2024-01-15T05:10:01;21.43;;;10.77;;
12480;SDS011;6305;48.398;11.762;2024-01-15T05:12:29;24.03;;;11.07;;
12480;SDS011;6305;48.398;11.762;2024-01-15T05:14:57;20.60;;;10.60;;
12480;SDS011;6305;48.398;11.762;2024-01-15T05:17:24;20.87;;;10.90;;
12480;SDS011;6305;48.398;11.762;2024-01-15T05:19:51;22.83;;;10.67;;
12480;SDS011;6305;48.398;11.762;2024-01-15T05:22:18;20.53;;;10.40;;
12480;SDS011;6305;48.398;11.762;2024-01-15T05:24:46;19.00;;;10.43;;
12480;SDS011;6305;48.398;11.762;2024-01-15T05:27:13;17.03;;;9.17;;
12480;SDS011;6305;48.398;11.762;2024-01-15T05:29:40;21.27;;;9.43;;
12480;SDS011;6305;48.398;11.762;2024-01-15T05:32:08;17.47;;;9.60;;
12480;SDS011;6305;48.398;11.762;2024-01-15T05:34:35;19.70;;;9.43;;
12480;SDS011;6305;48.398;11.762;2024-01-15T05:37:02;17.00;;;9.03;;
12480;SDS011;6305;48.398;11.762;2024-01-15T05:39:30;17.23;;;9.60;;
12480;SDS011;6305;48.398;11.762;2024-01-15T05:41:57;16.90;;;9.10;;
12480;SDS011;6305;48.398;11.762;2024-01-15T05:44:25;20.40;;;9.87;;
12480;SDS011;6305;48.398;11.762;2024-01-15T05:46:52;18.17;;;9.70;;
12480;SDS011;6305;48.398;11.762;2024-01-15T05:49:21;18.80;;;9.57;;
12480;SDS011;6305;48.398;11.762;2024-01-15T05:51:48;17.13;;;8.97;;
12480;SDS011;6305;48.398;11.762;2024-01-15T05:54:15;17.10;;;8.90;;
12480;SDS011;6305;48.398;11.762;2024-01-15T05:56:43;16.23;;;9.30;;
12480;SDS011;6305;48.398;11.762;2024-01-15T05:59:10;19.80;;;9.67;;
12480;SDS011;6305;48.398;11.762;2024-01-15T06:01:37;19.37;;;9.40;;
12480;SDS011;6305;48.398;11.762;2024-01-15T06:04:04;17.77;;;9.70;;
12480;SDS011;6305;48.398;11.762;2024-01-15T06:06:33;18.33;;;9.30;;
12480;SDS011;6305;48.398;11.762;2024-01-15T06:09:00;15.83;;;8.50;;
12480;SDS011;6305;48.398;11.762;2024-01-15T06:11:30;14.13;;;8.80;;
12480;SDS011;6305;48.398;11.762;2024-01-15T06:13:58;19.03;;;8.93;;
12480;SDS011;6305;48.398;11.762;2024-01-15T06:16:25;17.40;;;9.27;;
12480;SDS011;6305;48.398;11.762;2024-01-15T06:18:53;17.50;;;8.67;;
12480;SDS011;6305;48.398;11.762;2024-01-15T06:21:20;18.57;;;8.80;;
12480;SDS011;6305;48.398;11.762;2024-01-15T06:23:48;17.03;;;9.40;;
12480;SDS011;6305;48.398;11.762;2024-01-15T06:26:15;17.87;;;9.27;;
12480;SDS011;6305;48.398;11.762;2024-01-15T06:28:42;18.63;;;9.03;;
12480;SDS011;6305;48.398;11.762;2024-01-15T06:31:09;16.20;;;8.57;;
12480;SDS011;6305;48.398;11.762;2024-01-15T06:33:36;16.07;;;8.10;;
12480;SDS011;6305;48.398;11.762;2024-01-15T06:36:04;17.00;;;7.73;;
12480;SDS011;6305;48.398;11.762;2024-01-15T06:38:31;15.97;;;8.00;;
12480;SDS011;6305;48.398;11.762;2024-01-15T06:41:00;15.73;;;7.57;;
12480;SDS011;6305;48.398;11.762;2024-01-15T06:43:27;14.77;;;7.90;;
12480;SDS011;6305;48.398;11.762;2024-01-15T06:45:54;14.50;;;8.40;;
12480;SDS011;6305;48.398;11.762;2024-01-15T06:48:20;15.07;;;8.27;;
12480;SDS011;6305;48.398;11.762;2024-01-15T06:50:47;17.87;;;8.73;;
12480;SDS011;6305;48.398;11.762;2024-01-15T06:53:14;16.77;;;8.33;;
12480;SDS011;6305;48.398;11.762;2024-01-15T06:55:42;15.07;;;8.40;;
12480;SDS011;6305;48.398;11.762;2024-01-15T06:58:10;14.90;;;7.77;;
12480;SDS011;6305;48.398;11.762;2024-01-15T07:00:37;17.27;;;7.80;;
12480;SDS011;6305;48.398;11.762;2024-01-15T07:03:05;13.87;;;7.20;;
12480;SDS011;6305;48.398;11.762;2024-01-15T07:05:32;15.13;;;7.30;;
12480;SDS011;6305;48.398;11.762;2024-01-15T07:07:59;15.87;;;7.60;;
12480;SDS011;6305;48.398;11.762;2024-01-15T07:10:27;13.70;;;7.77;;
12480;SDS011;6305;48.398;11.762;2024-01-15T07:12:54;11.97;;;6.43;;
12480;SDS011;6305;48.398;11.762;2024-01-15T07:15:22;13.53;;;7.50;;
12480;SDS011;6305;48.398;11.762;2024-01-15T07:17:49;11.63;;;6.67;;
12480;SDS011;6305;48.398;11.762;2024-01-15T07:20:16;11.57;;;6.20;;
12480;SDS011;6305;48.398;11.762;2024-01-15T07:22:44;12.60;;;6.53;;
12480;SDS011;6305;48.398;11.762;2024-01-15T07:25:11;11.53;;;6.20;;
12480;SDS011;6305;48.398;11.762;2024-01-15T07:27:39;9.30;;;5.60;;
12480;SDS011;6305;48.398;11.762;2024-01-15T07:30:09;12.33;;;6.23;;
12480;SDS011;6305;48.398;11.762;2024-01-15T07:32:38;10.43;;;5.53;;
12480;SDS011;6305;48.398;11.762;2024-01-15T07:35:06;12.93;;;6.47;;
12480;SDS011;6305;48.398;11.762;2024-01-15T07:37:33;9.43;;;5.40;;
12480;SDS011;6305;48.398;11.762;2024-01-15T07:40:00;9.20;;;4.87;;
12480;SDS011;6305;48.398;11.762;2024-01-15T07:42:29;8.00;;;4.57;;
12480;SDS011;6305;48.398;11.762;2024-01-15T07:44:56;8.53;;;4.83;;
12480;SDS011;6305;48.398;11.762;2024-01-15T07:47:23;11.03;;;5.20;;
12480;SDS011;6305;48.398;11.762;2024-01-15T07:49:52;9.37;;;4.70;;
12480;SDS011;6305;48.398;11.762;2024-01-15T07:52:19;10.33;;;5.60;;
12480;SDS011;6305;48.398;11.762;2024-01-15T07:54:46;8.10;;;4.60;;
12480;SDS011;6305;48.398;11.762;2024-01-15T07:57:13;8.37;;;4.77;;
12480;SDS011;6305;48.398;11.762;2024-01-15T07:59:40;9.17;;;4.77;;
12480;SDS011;6305;48.398;11.762;2024-01-15T08:02:07;8.10;;;4.93;;
12480;SDS011;6305;48.398;11.762;2024-01-15T08:04:36;7.63;;;4.60;;
12480;SDS011;6305;48.398;11.762;2024-01-15T08:07:04;9.30;;;5.13;;
12480;SDS011;6305;48.398;11.762;2024-01-15T08:09:32;9.10;;;4.63;;
12480;SDS011;6305;48.398;11.762;2024-01-15T08:11:59;10.73;;;5.00;;
12480;SDS011;6305;48.398;11.762;2024-01-15T08:14:26;9.00;;;4.50;;
12480;SDS011;6305;48.398;11.762;2024-01-15T08:16:53;8.43;;;4.43;;
12480;SDS011;6305;48.398;11.762;2024-01-15T08:19:20;7.23;;;4.33;;
12480;SDS011;6305;48.398;11.762;2024-01-15T08:21:46;9.77;;;4.40;;
12480;SDS011;6305;48.398;11.762;2024-01-15T08:24:15;7.23;;;4.00;;
12480;SDS011;6305;48.398;11.762;2024-01-15T08:26:42;5.40;;;3.57;;
12480;SDS011;6305;48.398;11.762;2024-01-15T08:29:10;5.83;;;2.93;;
12480;SDS011;6305;48.398;11.762;2024-01-15T08:31:37;6.13;;;3.40;;
12480;SDS011;6305;48.398;11.762;2024-01-15T08:34:04;5.90;;;3.13;;
12480;SDS011;6305;48.398;11.762;2024-01-15T08:36:31;5.87;;;3.13;;
12480;SDS011;6305;48.398;11.762;2024-01-15T08:39:00;5.53;;;2.80;;
12480;SDS011;6305;48.398;11.762;2024-01-15T08:41:31;4.47;;;2.40;;
12480;SDS011;6305;48.398;11.762;2024-01-15T08:43:58;4.83;;;2.77;;
12480;SDS011;6305;48.398;11.762;2024-01-15T08:46:25;3.87;;;2.53;;
12480;SDS011;6305;48.398;11.762;2024-01-15T08:48:52;4.10;;;2.77;;
12480;SDS011;6305;48.398;11.762;2024-01-15T08:51:19;4.10;;;2.23;;
12480;SDS011;6305;48.398;11.762;2024-01-15T08:53:46;3.03;;;2.00;;
12480;SDS011;6305;48.398;11.762;2024-01-15T08:56:13;4.87;;;2.77;;
12480;SDS011;6305;48.398;11.762;2024-01-15T08:58:41;3.87;;;2.27;;
12480;SDS011;6305;48.398;11.762;2024-01-15T09:01:08;3.40;;;1.87;;
12480;SDS011;6305;48.398;11.762;2024-01-15T09:03:35;3.03;;;1.87;;
12480;SDS011;6305;48.398;11.762;2024-01-15T09:06:02;3.37;;;2.00;;
12480;SDS011;6305;48.398;11.762;2024-01-15T09:08:29;3.17;;;2.10;;
12480;SDS011;6305;48.398;11.762;2024-01-15T09:10:56;2.97;;;1.93;;
12480;SDS011;6305;48.398;11.762;2024-01-15T09:13:23;3.72;;;2.20;;
12480;SDS011;6305;48.398;11.762;2024-01-15T09:15:52;4.20;;;2.25;;
12480;SDS011;6305;48.398;11.762;2024-01-15T09:18:19;3.42;;;2.25;;
12480;SDS011;6305;48.398;11.762;2024-01-15T09:20:45;3.10;;;1.98;;
12480;SDS011;6305;48.398;11.762;2024-01-15T09:23:12;3.63;;;2.30;;
12480;SDS011;6305;48.398;11.762;2024-01-15T09:25:39;4.30;;;2.50;;
12480;SDS011;6305;48.398;11.762;2024-01-15T09:28:06;4.32;;;2.40;;
12480;SDS011;6305;48.398;11.762;2024-01-15T09:30:33;4.72;;;2.10;;
12480;SDS011;6305;48.398;11.762;2024-01-15T09:33:01;4.23;;;2.27;;
12480;SDS011;6305;48.398;11.762;2024-01-15T09:35:29;3.17;;;2.13;;
12480;SDS011;6305;48.398;11.762;2024-01-15T09:37:56;3.20;;;2.17;;
12480;SDS011;6305;48.398;11.762;2024-01-15T09:40:23;4.77;;;2.20;;
12480;SDS011;6305;48.398;11.762;2024-01-15T09:42:51;3.60;;;2.23;;
12480;SDS011;6305;48.398;11.762;2024-01-15T09:45:19;4.23;;;2.20;;
12480;SDS011;6305;48.398;11.762;2024-01-15T09:47:46;3.03;;;1.80;;
12480;SDS011;6305;48.398;11.762;2024-01-15T09:50:14;2.87;;;1.90;;
12480;SDS011;6305;48.398;11.762;2024-01-15T09:52:42;3.57;;;1.93;;
12480;SDS011;6305;48.398;11.762;2024-01-15T09:55:10;3.90;;;2.00;;
12480;SDS011;6305;48.398;11.762;2024-01-15T09:57:39;4.37;;;2.20;;
12480;SDS011;6305;48.398;11.762;2024-01-15T10:00:06;3.60;;;2.17;;
12480;SDS011;6305;48.398;11.762;2024-01-15T10:02:35;3.10;;;2.13;;
12480;SDS011;6305;48.398;11.762;2024-01-15T10:05:04;3.90;;;2.10;;
12480;SDS011;6305;48.398;11.762;2024-01-15T10:07:32;3.93;;;2.20;;
12480;SDS011;6305;48.398;11.762;2024-01-15T10:10:02;4.13;;;1.90;;
12480;SDS011;6305;48.398;11.762;2024-01-15T10:12:29;4.30;;;2.03;;
12480;SDS011;6305;48.398;11.762;2024-01-15T10:14:56;3.00;;;2.23;;
12480;SDS011;6305;48.398;11.762;2024-01-15T10:17:23;4.43;;;2.40;;
12480;SDS011;6305;48.398;11.762;2024-01-15T10:19:51;6.73;;;3.10;;
12480;SDS011;6305;48.398;11.762;2024-01-15T10:22:18;7.63;;;4.10;;
12480;SDS011;6305;48.398;11.762;2024-01-15T10:24:46;9.60;;;4.40;;
12480;SDS011;6305;48.398;11.762;2024-01-15T10:27:13;7.27;;;4.00;;
12480;SDS011;6305;48.398;11.762;2024-01-15T10:29:40;5.57;;;3.50;;
12480;SDS011;6305;48.398;11.762;2024-01-15T10:32:08;7.17;;;3.93;;
12480;SDS011;6305;48.398;11.762;2024-01-15T10:34:37;6.00;;;3.63;;
12480;SDS011;6305;48.398;11.762;2024-01-15T10:37:06;6.97;;;3.97;;
12480;SDS011;6305;48.398;11.762;2024-01-15T10:39:34;9.00;;;4.37;;
12480;SDS011;6305;48.398;11.762;2024-01-15T10:42:03;11.13;;;5.40;;
12480;SDS011;6305;48.398;11.762;2024-01-15T10:44:31;8.13;;;5.10;;
12480;SDS011;6305;48.398;11.762;2024-01-15T10:46:58;8.83;;;5.13;;
12480;SDS011;6305;48.398;11.762;2024-01-15T10:49:26;7.17;;;4.40;;
12480;SDS011;6305;48.398;11.762;2024-01-15T10:51:54;8.80;;;5.15;;
12480;SDS011;6305;48.398;11.762;2024-01-15T10:54:23;7.32;;;4.45;;
12480;SDS011;6305;48.398;11.762;2024-01-15T10:56:50;8.50;;;4.90;;
12480;SDS011;6305;48.398;11.762;2024-01-15T10:59:20;9.05;;;5.10;;
12480;SDS011;6305;48.398;11.762;2024-01-15T11:01:48;8.43;;;5.00;;
12480;SDS011;6305;48.398;11.762;2024-01-15T11:04:16;7.20;;;4.38;;
12480;SDS011;6305;48.398;11.762;2024-01-15T11:06:44;7.57;;;4.72;;
12480;SDS011;6305;48.398;11.762;2024-01-15T11:09:12;8.93;;;4.95;;
12480;SDS011;6305;48.398;11.762;2024-01-15T11:11:40;9.45;;;4.90;;
12480;SDS011;6305;48.398;11.762;2024-01-15T11:14:09;7.75;;;4.60;;
12480;SDS011;6305;48.398;11.762;2024-01-15T11:16:57;9.23;;;4.93;;
12480;SDS011;6305;48.398;11.762;2024-01-15T11:19:25;7.68;;;4.55;;
12480;SDS011;6305;48.398;11.762;2024-01-15T11:22:02;7.53;;;4.47;;
12480;SDS011;6305;48.398;11.762;2024-01-15T11:24:34;7.38;;;3.90;;
12480;SDS011;6305;48.398;11.762;2024-01-15T11:27:03;6.53;;;3.85;;
12480;SDS011;6305;48.398;11.762;2024-01-15T11:29:31;5.78;;;3.50;;
12480;SDS011;6305;48.398;11.762;2024-01-15T11:32:02;6.75;;;3.50;;
12480;SDS011;6305;48.398;11.762;2024-01-15T11:34:51;6.55;;;3.13;;
12480;SDS011;6305;48.398;11.762;2024-01-15T11:37:23;4.57;;;3.20;;
12480;SDS011;6305;48.398;11.762;2024-01-15T11:39:51;6.15;;;3.75;;
12480;SDS011;6305;48.398;11.762;2024-01-15T11:42:19;5.32;;;3.28;;
12480;SDS011;6305;48.398;11.762;2024-01-15T11:44:48;6.40;;;3.05;;
12480;SDS011;6305;48.398;11.762;2024-01-15T11:47:16;4.60;;;3.47;;
12480;SDS011;6305;48.398;11.762;2024-01-15T11:50:09;5.13;;;3.47;;
12480;SDS011;6305;48.398;11.762;2024-01-15T11:52:37;5.45;;;3.30;;
12480;SDS011;6305;48.398;11.762;2024-01-15T11:55:07;5.40;;;3.55;;
12480;SDS011;6305;48.398;11.762;2024-01-15T11:57:44;5.07;;;3.25;;
12480;SDS011;6305;48.398;11.762;2024-01-15T12:00:13;6.47;;;3.30;;
12480;SDS011;6305;48.398;11.762;2024-01-15T12:02:41;4.50;;;2.70;;
12480;SDS011;6305;48.398;11.762;2024-01-15T12:05:09;5.45;;;3.10;;
12480;SDS011;6305;48.398;11.762;2024-01-15T12:07:38;5.18;;;3.13;;
12480;SDS011;6305;48.398;11.762;2024-01-15T12:10:08;6.25;;;3.40;;
12480;SDS011;6305;48.398;11.762;2024-01-15T12:12:41;6.65;;;3.42;;
12480;SDS011;6305;48.398;11.762;2024-01-15T12:15:16;5.45;;;3.08;;
12480;SDS011;6305;48.398;11.762;2024-01-15T12:17:44;4.18;;;3.40;;
12480;SDS011;6305;48.398;11.762;2024-01-15T12:20:12;6.15;;;3.17;;
12480;SDS011;6305;48.398;11.762;2024-01-15T12:22:41;6.60;;;3.25;;
12480;SDS011;6305;48.398;11.762;2024-01-15T12:25:08;5.07;;;3.10;;
12480;SDS011;6305;48.398;11.762;2024-01-15T12:27:35;4.68;;;3.30;;
12480;SDS011;6305;48.398;11.762;2024-01-15T12:30:03;7.57;;;3.50;;
12480;SDS011;6305;48.398;11.762;2024-01-15T12:32:32;5.40;;;3.15;;
12480;SDS011;6305;48.398;11.762;2024-01-15T12:35:02;5.70;;;3.60;;
12480;SDS011;6305;48.398;11.762;2024-01-15T12:37:29;7.03;;;3.60;;
12480;SDS011;6305;48.398;11.762;2024-01-15T12:39:56;5.40;;;3.28;;
12480;SDS011;6305;48.398;11.762;2024-01-15T12:42:25;5.63;;;3.25;;
12480;SDS011;6305;48.398;11.762;2024-01-15T12:44:54;5.03;;;3.20;;
12480;SDS011;6305;48.398;11.762;2024-01-15T12:47:22;6.30;;;3.50;;
12480;SDS011;6305;48.398;11.762;2024-01-15T12:49:52;7.28;;;3.88;;
12480;SDS011;6305;48.398;11.762;2024-01-15T12:52:22;5.82;;;3.78;;
12480;SDS011;6305;48.398;11.762;2024-01-15T12:54:49;8.57;;;4.10;;
12480;SDS011;6305;48.398;11.762;2024-01-15T12:57:17;7.18;;;3.78;;
12480;SDS011;6305;48.398;11.762;2024-01-15T12:59:44;6.22;;;3.85;;
12480;SDS011;6305;48.398;11.762;2024-01-15T13:02:12;5.72;;;3.47;;
12480;SDS011;6305;48.398;11.762;2024-01-15T13:04:40;6.13;;;3.42;;
12480;SDS011;6305;48.398;11.762;2024-01-15T13:07:07;6.05;;;3.95;;
12480;SDS011;6305;48.398;11.762;2024-01-15T13:09:35;5.77;;;3.57;;
12480;SDS011;6305;48.398;11.762;2024-01-15T13:12:02;6.13;;;3.72;;
12480;SDS011;6305;48.398;11.762;2024-01-15T13:14:30;5.27;;;3.47;;
12480;SDS011;6305;48.398;11.762;2024-01-15T13:16:58;5.40;;;3.33;;
12480;SDS011;6305;48.398;11.762;2024-01-15T13:19:25;5.50;;;3.53;;
12480;SDS011;6305;48.398;11.762;2024-01-15T13:21:52;7.53;;;3.50;;
12480;SDS011;6305;48.398;11.762;2024-01-15T13:24:19;5.73;;;3.50;;
12480;SDS011;6305;48.398;11.762;2024-01-15T13:26:49;5.07;;;3.50;;
12480;SDS011;6305;48.398;11.762;2024-01-15T13:29:16;6.93;;;3.63;;
12480;SDS011;6305;48.398;11.762;2024-01-15T13:31:43;6.23;;;3.53;;
12480;SDS011;6305;48.398;11.762;2024-01-15T13:34:11;7.93;;;3.60;;
12480;SDS011;6305;48.398;11.762;2024-01-15T13:36:39;6.07;;;3.77;;
12480;SDS011;6305;48.398;11.762;2024-01-15T13:39:06;6.33;;;4.33;;
12480;SDS011;6305;48.398;11.762;2024-01-15T13:41:34;7.97;;;3.97;;
12480;SDS011;6305;48.398;11.762;2024-01-15T13:44:03;8.03;;;4.10;;
12480;SDS011;6305;48.398;11.762;2024-01-15T13:46:30;6.77;;;3.77;;
12480;SDS011;6305;48.398;11.762;2024-01-15T13:48:59;6.93;;;4.20;;
12480;SDS011;6305;48.398;11.762;2024-01-15T13:51:27;8.43;;;4.43;;
12480;SDS011;6305;48.398;11.762;2024-01-15T13:53:55;8.03;;;4.40;;
12480;SDS011;6305;48.398;11.762;2024-01-15T13:56:22;8.20;;;3.93;;
12480;SDS011;6305;48.398;11.762;2024-01-15T13:58:49;6.60;;;3.77;;
12480;SDS011;6305;48.398;11.762;2024-01-15T14:01:18;8.00;;;4.17;;
12480;SDS011;6305;48.398;11.762;2024-01-15T14:03:45;9.50;;;4.90;;
12480;SDS011;6305;48.398;11.762;2024-01-15T14:06:12;11.33;;;4.87;;
12480;SDS011;6305;48.398;11.762;2024-01-15T14:08:39;7.67;;;4.40;;
12480;SDS011;6305;48.398;11.762;2024-01-15T14:11:05;7.40;;;4.53;;
12480;SDS011;6305;48.398;11.762;2024-01-15T14:13:32;7.60;;;4.10;;
12480;SDS011;6305;48.398;11.762;2024-01-15T14:15:59;7.63;;;4.10;;
12480;SDS011;6305;48.398;11.762;2024-01-15T14:18:28;5.83;;;4.20;;
12480;SDS011;6305;48.398;11.762;2024-01-15T14:20:54;6.83;;;4.10;;
12480;SDS011;6305;48.398;11.762;2024-01-15T14:23:21;7.10;;;4.00;;
12480;SDS011;6305;48.398;11.762;2024-01-15T14:25:48;6.63;;;4.00;;
12480;SDS011;6305;48.398;11.762;2024-01-15T14:28:15;9.00;;;4.30;;
12480;SDS011;6305;48.398;11.762;2024-01-15T14:30:42;6.10;;;4.10;;
12480;SDS011;6305;48.398;11.762;2024-01-15T14:33:09;7.00;;;4.20;;
12480;SDS011;6305;48.398;11.762;2024-01-15T14:35:38;8.60;;;4.07;;
12480;SDS011;6305;48.398;11.762;2024-01-15T14:38:05;7.30;;;4.50;;